CDM2 weather

Didsbury/Minty Field
Didsbury, Alberta, Canada

Public forecast

Using degrees Celsius for public forecast. Weather courtesy of forecast.io.

METAR (pilot weather report)

Closest report is Calgary / Springbank Airport, 33.1 nm (61.2 km) S. Retrieved 2019/07/15 17:00 UTC (53 minutes ago):

CYBW 151700Z AUTO VRB04KT 9SM SCT180 17/07 A3006 RMK SLP184 DENSITY ALT 4900FT

TAF (pilot weather forecast)

Closest forecast is Calgary / Springbank Airport, 33.1 nm (61.2 km) S. Retrieved 2019/07/15 12:39 UTC (5 hours ago):

TAF CYBW 151138Z 1512/1524 30006KT P6SM FEW090 FEW150 SCT220 FM151800 12006KT P6SM SCT050 TEMPO 1520/1524 P6SM -SHRA BKN050 PROB30 1521/1524 VRB15G25KT 5SM TSRA BKN050CB RMK FCST BASED ON AUTO OBS. NXT FCST BY 151800Z